createdAt,value
2022-11-29T00:01:45.018Z,78851.88
2022-11-29T00:04:13.913Z,78842.25
2022-11-29T00:06:42.748Z,78848.94
2022-11-29T00:09:14.306Z,78874.75
2022-11-29T00:12:01.972Z,78861.72
2022-11-29T00:14:31.331Z,78870.34
2022-11-29T00:17:05.208Z,78882.13
2022-11-29T00:19:35.891Z,78846.75
2022-11-29T00:22:05.671Z,78860.03
2022-11-29T00:24:35.625Z,78866.63
2022-11-29T00:27:04.477Z,78832.19
2022-11-29T00:29:34.951Z,78867.38
2022-11-29T00:32:04.490Z,78874.09
2022-11-29T00:34:33.236Z,78880.66
2022-11-29T00:37:02.071Z,78887.34
2022-11-29T00:39:31.495Z,78853.13
2022-11-29T00:42:00.088Z,78886.25
2022-11-29T00:44:28.806Z,78867.38
2022-11-29T00:46:57.813Z,78865.53
2022-11-29T00:49:26.804Z,78888.09
2022-11-29T00:51:55.369Z,78869.03
2022-11-29T00:54:24.456Z,78894.81
2022-11-29T00:56:53.797Z,78878.97
2022-11-29T00:59:23.194Z,78902.78
2022-11-29T01:01:52.170Z,78884.34
2022-11-29T01:04:21.108Z,78894.91
2022-11-29T01:06:54.262Z,78888.28
2022-11-29T01:09:23.231Z,78856.59
2022-11-29T01:11:52.128Z,78875.72
2022-11-29T01:14:21.195Z,78899.47
2022-11-29T01:16:49.861Z,78898.81
2022-11-29T01:19:18.845Z,78884.94
2022-11-29T01:21:48.619Z,78910.66
2022-11-29T01:24:17.616Z,78911.28
2022-11-29T01:26:46.597Z,78910.63
2022-11-29T01:29:16.439Z,78902.03
2022-11-29T01:31:45.114Z,78882.84
2022-11-29T01:34:14.010Z,78911.78
2022-11-29T01:36:42.724Z,78901.91
2022-11-29T01:39:11.926Z,78928.16
2022-11-29T01:41:40.724Z,78920.78
2022-11-29T01:44:15.536Z,78928.00
2022-11-29T01:46:47.359Z,78920.72
2022-11-29T01:49:30.328Z,78930.63
2022-11-29T01:52:07.832Z,78908.81
2022-11-29T01:54:41.177Z,78922.66
2022-11-29T01:57:10.990Z,78904.72
2022-11-29T01:59:45.001Z,78938.84
2022-11-29T02:02:35.411Z,78930.00
2022-11-29T02:05:06.322Z,78931.03
2022-11-29T02:07:35.367Z,78924.13
2022-11-29T02:10:05.546Z,78907.97
2022-11-29T02:12:39.501Z,78937.19
2022-11-29T02:15:32.725Z,78930.16
2022-11-29T02:18:22.257Z,78937.06
2022-11-29T02:21:29.190Z,78933.69
2022-11-29T02:24:54.845Z,78931.34
2022-11-29T02:27:35.350Z,78939.16
2022-11-29T02:30:34.576Z,78935.19
2022-11-29T02:33:24.642Z,78939.91
2022-11-29T02:36:22.972Z,78946.94
2022-11-29T02:39:15.368Z,78924.06
2022-11-29T02:42:31.510Z,78951.06
2022-11-29T02:45:15.671Z,78955.44
2022-11-29T02:48:11.781Z,78955.44
2022-11-29T02:50:51.184Z,78949.66
2022-11-29T02:53:52.405Z,78954.53
2022-11-29T02:56:42.719Z,78957.22
2022-11-29T02:59:22.528Z,78968.66
2022-11-29T03:02:19.570Z,78969.03
2022-11-29T03:04:59.791Z,78963.22
2022-11-29T03:07:52.083Z,78979.75
2022-11-29T03:10:32.737Z,78983.25
2022-11-29T03:13:06.584Z,78951.16
2022-11-29T03:15:39.880Z,78969.69
2022-11-29T03:18:09.599Z,78993.59
2022-11-29T03:20:53.382Z,78996.44
2022-11-29T03:23:46.136Z,79001.09
2022-11-29T03:26:17.684Z,79002.44
2022-11-29T03:29:08.714Z,79009.78
2022-11-29T03:31:52.562Z,79006.56
2022-11-29T03:34:33.312Z,78999.34
2022-11-29T03:37:26.988Z,79013.78
2022-11-29T03:40:11.860Z,79008.97
2022-11-29T03:42:52.124Z,79017.59
2022-11-29T03:45:39.418Z,79018.81
2022-11-29T03:48:18.930Z,79016.34
2022-11-29T03:50:55.909Z,79026.91
2022-11-29T03:53:49.301Z,79028.13
2022-11-29T03:56:30.045Z,79026.69
2022-11-29T03:59:26.477Z,79029.88
2022-11-29T04:02:13.456Z,79031.00
2022-11-29T04:05:09.736Z,79036.19
2022-11-29T04:07:53.693Z,79040.03
2022-11-29T04:10:46.893Z,79034.59
2022-11-29T04:13:43.011Z,79037.06
2022-11-29T04:16:33.795Z,79040.09
2022-11-29T04:19:39.290Z,79045.00
2022-11-29T04:22:44.614Z,79046.34
2022-11-29T04:25:19.457Z,79048.28
2022-11-29T04:27:55.773Z,79056.47
2022-11-29T04:30:26.702Z,79044.56
2022-11-29T04:33:08.575Z,79051.59
2022-11-29T04:35:40.622Z,79059.59
2022-11-29T04:38:44.335Z,79060.41
2022-11-29T04:41:46.460Z,79056.00
2022-11-29T04:44:24.367Z,79067.09
2022-11-29T04:47:35.295Z,79043.97
2022-11-29T04:50:25.230Z,79067.47
2022-11-29T04:53:25.679Z,79070.97
2022-11-29T04:55:58.367Z,79070.53
2022-11-29T04:58:36.647Z,79061.66
2022-11-29T05:01:31.685Z,79066.88
2022-11-29T05:04:23.419Z,79076.59
2022-11-29T05:07:20.988Z,79076.75
2022-11-29T05:10:00.646Z,79084.91
2022-11-29T05:12:59.707Z,79081.09
2022-11-29T05:16:05.754Z,79087.75
2022-11-29T05:18:50.334Z,79081.94
2022-11-29T05:21:40.186Z,79081.69
2022-11-29T05:24:33.888Z,79079.38
2022-11-29T05:27:23.629Z,79073.47
2022-11-29T05:30:13.225Z,79082.19
2022-11-29T05:33:00.754Z,79081.28
2022-11-29T05:35:48.980Z,79080.59
2022-11-29T05:38:46.229Z,79076.56
2022-11-29T05:41:46.317Z,79081.34
2022-11-29T05:44:41.549Z,79070.31
2022-11-29T05:47:12.452Z,79067.59
2022-11-29T05:50:08.252Z,79073.72
2022-11-29T05:52:54.777Z,79073.06
2022-11-29T05:56:14.622Z,79075.16
2022-11-29T05:58:52.185Z,79072.88
2022-11-29T06:01:25.876Z,79074.69
2022-11-29T06:04:13.205Z,79071.03
2022-11-29T06:07:24.777Z,79067.78
2022-11-29T06:10:07.946Z,79073.84
2022-11-29T06:12:37.274Z,79069.03
2022-11-29T06:15:41.859Z,79064.66
2022-11-29T06:18:17.527Z,79062.00
2022-11-29T06:21:01.580Z,79052.16
2022-11-29T06:24:08.910Z,79053.63
2022-11-29T06:27:10.875Z,79042.97
2022-11-29T06:29:52.023Z,79043.50
2022-11-29T06:32:57.795Z,79048.78
2022-11-29T06:35:48.486Z,79045.56
2022-11-29T06:38:28.203Z,79041.47
2022-11-29T06:41:02.339Z,79014.88
2022-11-29T06:43:32.635Z,79024.53
2022-11-29T06:46:14.493Z,79035.03
2022-11-29T06:49:15.782Z,79029.53
2022-11-29T06:52:09.069Z,79027.53
2022-11-29T06:55:02.300Z,79015.31
2022-11-29T06:58:00.574Z,79018.16
2022-11-29T07:00:48.757Z,79013.13
2022-11-29T07:03:33.299Z,79015.19
2022-11-29T07:06:12.966Z,78997.84
2022-11-29T07:08:42.483Z,79003.69
2022-11-29T07:11:15.390Z,79011.47
2022-11-29T07:13:44.850Z,78979.66
2022-11-29T07:16:36.492Z,79003.16
2022-11-29T07:19:20.091Z,79008.19
2022-11-29T07:22:06.266Z,78997.06
2022-11-29T07:24:59.961Z,78996.75
2022-11-29T07:27:42.739Z,78998.53
2022-11-29T07:30:17.454Z,78993.72
2022-11-29T07:33:00.324Z,78988.28
2022-11-29T07:35:50.566Z,78984.34
2022-11-29T07:38:32.074Z,78995.63
2022-11-29T07:41:07.067Z,78991.28
2022-11-29T07:43:42.062Z,78973.94
2022-11-29T07:46:11.452Z,78982.34
2022-11-29T07:48:40.066Z,78982.44
2022-11-29T07:51:09.154Z,78969.25
2022-11-29T07:53:43.410Z,78973.38
2022-11-29T07:56:13.412Z,78976.31
2022-11-29T07:58:42.178Z,78957.91
2022-11-29T08:01:11.455Z,78979.44
2022-11-29T08:03:42.128Z,78966.59
2022-11-29T08:06:11.274Z,78962.25
2022-11-29T08:08:43.997Z,78961.75
2022-11-29T08:14:01.987Z,78966.19
2022-11-29T08:16:31.154Z,78949.72
2022-11-29T08:18:59.921Z,78959.31
2022-11-29T08:21:29.526Z,78959.44
2022-11-29T08:23:58.339Z,78963.38
2022-11-29T08:26:31.384Z,78945.81
2022-11-29T08:29:00.871Z,78964.50
2022-11-29T08:31:29.541Z,78949.00
2022-11-29T08:33:58.590Z,78954.03
2022-11-29T08:36:27.549Z,78944.59
2022-11-29T08:39:07.538Z,78945.91
2022-11-29T08:41:37.983Z,78957.50
2022-11-29T08:44:07.589Z,78940.56
2022-11-29T08:46:54.758Z,78935.75
2022-11-29T08:49:24.086Z,78949.00
2022-11-29T08:52:14.426Z,78951.19
2022-11-29T08:54:44.183Z,78949.78
2022-11-29T09:00:02.095Z,78940.25
2022-11-29T09:02:30.779Z,78952.19
2022-11-29T09:04:59.607Z,78938.97
2022-11-29T09:07:28.370Z,78948.28
2022-11-29T09:09:57.248Z,78947.19
2022-11-29T09:12:26.203Z,78942.84
2022-11-29T09:14:55.099Z,78949.59
2022-11-29T09:17:23.768Z,78957.38
2022-11-29T09:19:52.558Z,78944.88
2022-11-29T09:22:21.393Z,78949.63
2022-11-29T09:24:50.265Z,78939.47
2022-11-29T09:27:18.968Z,78946.03
2022-11-29T09:29:48.770Z,78943.63
2022-11-29T09:32:17.609Z,78940.94
2022-11-29T09:34:46.916Z,78930.25
2022-11-29T09:37:16.006Z,78940.28
2022-11-29T09:39:44.925Z,78926.91
2022-11-29T09:42:55.605Z,78942.72
2022-11-29T09:45:44.327Z,78935.66
2022-11-29T09:48:16.104Z,78937.53
2022-11-29T09:50:59.765Z,78940.13
2022-11-29T09:53:55.725Z,78935.88
2022-11-29T09:56:44.760Z,78940.50
2022-11-29T09:59:24.635Z,78941.66
2022-11-29T10:02:21.040Z,78934.19
2022-11-29T10:04:56.487Z,78930.84
2022-11-29T10:07:39.464Z,78935.03
2022-11-29T10:10:12.744Z,78926.47
2022-11-29T10:12:47.867Z,78899.16
2022-11-29T10:15:26.895Z,78929.13
2022-11-29T10:18:45.170Z,78927.75
2022-11-29T10:21:21.651Z,78917.91
2022-11-29T10:23:59.278Z,78916.19
2022-11-29T10:26:34.853Z,78915.88
2022-11-29T10:29:04.428Z,78910.09
2022-11-29T10:31:44.247Z,78896.81
2022-11-29T10:34:15.877Z,78920.00
2022-11-29T10:36:49.722Z,78926.03
2022-11-29T10:40:05.165Z,78918.16
2022-11-29T10:42:50.142Z,78915.03
2022-11-29T10:46:01.037Z,78923.94
2022-11-29T10:48:34.509Z,78915.16
2022-11-29T10:51:04.362Z,78906.28
2022-11-29T10:53:37.976Z,78883.22
2022-11-29T10:56:15.299Z,78930.84
2022-11-29T10:59:21.301Z,78930.06
2022-11-29T11:01:50.424Z,78923.81
2022-11-29T11:04:28.984Z,78926.91
2022-11-29T11:07:02.140Z,78925.94
2022-11-29T11:09:43.268Z,78927.97
2022-11-29T11:12:21.992Z,78900.28
2022-11-29T11:14:52.437Z,78907.00
2022-11-29T11:17:26.982Z,78918.88
2022-11-29T11:20:03.201Z,78881.78
2022-11-29T11:22:33.905Z,78898.56
2022-11-29T11:25:07.426Z,78879.47
2022-11-29T11:27:41.180Z,78918.41
2022-11-29T11:30:24.500Z,78921.31
2022-11-29T11:33:09.522Z,78921.44
2022-11-29T11:35:38.785Z,78902.63
2022-11-29T11:38:16.074Z,78909.56
2022-11-29T11:40:46.113Z,78917.56
2022-11-29T11:43:21.400Z,78898.59
2022-11-29T11:45:55.786Z,78920.44
2022-11-29T11:48:25.390Z,78897.53
2022-11-29T11:51:00.596Z,78883.72
2022-11-29T11:53:36.725Z,78875.72
2022-11-29T11:56:09.506Z,78920.53
2022-11-29T11:58:52.948Z,78923.41
2022-11-29T12:01:26.777Z,78909.00
2022-11-29T12:04:07.669Z,78928.78
2022-11-29T12:06:53.508Z,78914.31
2022-11-29T12:09:48.538Z,78914.31
2022-11-29T12:12:24.555Z,78907.16
2022-11-29T12:15:00.115Z,78902.03
2022-11-29T12:17:29.059Z,78925.84
2022-11-29T12:20:23.505Z,78927.94
2022-11-29T12:23:11.964Z,78926.09
2022-11-29T12:26:01.820Z,78930.88
2022-11-29T12:28:36.957Z,78924.34
2022-11-29T12:31:38.746Z,78919.78
2022-11-29T12:34:35.852Z,78930.38
2022-11-29T12:37:23.582Z,78925.88
2022-11-29T12:40:38.382Z,78934.66
2022-11-29T12:43:19.192Z,78932.53
2022-11-29T12:46:32.048Z,78943.03
2022-11-29T12:49:19.661Z,78946.41
2022-11-29T12:52:10.302Z,78930.66
2022-11-29T12:55:17.008Z,78947.13
2022-11-29T12:57:54.962Z,78947.16
2022-11-29T13:01:01.268Z,78951.31
2022-11-29T13:04:01.341Z,78952.31
2022-11-29T13:06:43.661Z,78938.78
2022-11-29T13:09:47.238Z,78940.88
2022-11-29T13:12:42.002Z,78941.63
2022-11-29T13:16:07.854Z,78951.63
2022-11-29T13:18:51.428Z,78962.91
2022-11-29T13:21:36.107Z,78949.06
2022-11-29T13:24:13.422Z,78967.03
2022-11-29T13:26:45.129Z,78960.56
2022-11-29T13:29:18.039Z,78922.50
2022-11-29T13:31:49.100Z,78944.94
2022-11-29T13:34:50.187Z,78977.31
2022-11-29T13:37:28.703Z,78979.41
2022-11-29T13:40:39.340Z,78970.34
2022-11-29T13:43:19.001Z,78929.69
2022-11-29T13:45:53.606Z,78968.72
2022-11-29T13:48:51.661Z,78975.47
2022-11-29T13:51:38.841Z,78967.63
2022-11-29T13:54:47.569Z,78977.03
2022-11-29T13:57:17.961Z,78984.88
2022-11-29T13:59:53.300Z,78965.63
2022-11-29T14:02:30.623Z,78978.75
2022-11-29T14:05:06.329Z,78945.84
2022-11-29T14:07:37.524Z,78974.25
2022-11-29T14:10:29.118Z,78990.72
2022-11-29T14:13:02.733Z,78997.34
2022-11-29T14:15:34.218Z,78996.03
2022-11-29T14:18:10.774Z,78998.16
2022-11-29T14:20:46.598Z,78998.88
2022-11-29T14:23:17.633Z,79003.50
2022-11-29T14:25:58.582Z,79009.44
2022-11-29T14:28:32.889Z,78994.91
2022-11-29T14:31:03.163Z,79005.44
2022-11-29T14:34:09.878Z,79001.47
2022-11-29T14:37:09.382Z,79008.22
2022-11-29T14:39:50.961Z,79009.53
2022-11-29T14:42:48.742Z,79012.09
2022-11-29T14:45:41.002Z,79018.06
2022-11-29T14:48:33.249Z,78997.50
2022-11-29T14:51:32.682Z,79009.31
2022-11-29T14:54:08.161Z,79023.91
2022-11-29T14:56:43.963Z,78986.16
2022-11-29T14:59:41.964Z,79011.91
2022-11-29T15:02:35.701Z,79014.56
2022-11-29T15:05:45.052Z,79000.75
2022-11-29T15:08:45.707Z,79009.38
2022-11-29T15:11:37.092Z,79004.69
2022-11-29T15:14:46.681Z,79010.00
2022-11-29T15:18:02.120Z,79014.69
2022-11-29T15:20:59.122Z,79014.69
2022-11-29T15:23:34.433Z,79000.88
2022-11-29T15:26:03.622Z,78996.91
2022-11-29T15:28:39.492Z,79000.22
2022-11-29T15:31:21.543Z,79014.72
2022-11-29T15:33:56.825Z,79010.84
2022-11-29T15:36:29.206Z,79017.41
2022-11-29T15:39:01.544Z,79014.75
2022-11-29T15:41:42.773Z,79024.66
2022-11-29T15:44:24.383Z,79026.66
2022-11-29T15:47:28.771Z,79031.22
2022-11-29T15:50:17.713Z,79024.56
2022-11-29T15:52:48.824Z,79020.66
2022-11-29T15:55:24.962Z,78994.75
2022-11-29T15:58:07.047Z,79034.47
2022-11-29T16:00:38.548Z,79008.03
2022-11-29T16:03:21.946Z,79021.28
2022-11-29T16:05:57.260Z,79025.19
2022-11-29T16:08:31.067Z,79026.34
2022-11-29T16:11:01.558Z,79024.13
2022-11-29T16:13:36.214Z,79028.69
2022-11-29T16:16:18.767Z,79023.53
2022-11-29T16:18:50.548Z,78995.13
2022-11-29T16:21:27.035Z,79026.78
2022-11-29T16:23:57.956Z,79026.97
2022-11-29T16:26:33.703Z,79035.59
2022-11-29T16:29:11.984Z,79023.13
2022-11-29T16:31:42.858Z,79020.50
2022-11-29T16:34:32.983Z,79039.66
2022-11-29T16:37:05.905Z,79045.09
2022-11-29T16:39:49.637Z,79037.22
2022-11-29T16:42:28.390Z,79035.88
2022-11-29T16:45:28.214Z,79043.88
2022-11-29T16:48:01.567Z,79027.97
2022-11-29T16:50:34.343Z,79045.19
2022-11-29T16:53:37.305Z,79038.53
2022-11-29T16:56:09.783Z,79041.84
2022-11-29T16:59:16.596Z,79048.50
2022-11-29T17:01:32.464Z,79043.25
2022-11-29T17:04:05.170Z,79029.44
2022-11-29T17:06:36.845Z,79036.72
2022-11-29T17:09:06.977Z,79022.25
2022-11-29T17:11:36.097Z,79048.09
2022-11-29T17:14:05.302Z,79040.16
2022-11-29T17:16:34.375Z,79031.44
2022-11-29T17:19:03.383Z,79036.16
2022-11-29T17:21:33.288Z,79038.91
2022-11-29T17:24:02.440Z,79038.25
2022-11-29T17:26:31.353Z,79010.56
2022-11-29T17:29:00.604Z,79028.22
2022-11-29T17:31:30.853Z,79042.75
2022-11-29T17:34:01.808Z,79052.19
2022-11-29T17:36:31.668Z,79046.31
2022-11-29T17:39:01.629Z,79045.63
2022-11-29T17:41:33.875Z,79046.94
2022-11-29T17:44:03.384Z,79021.78
2022-11-29T17:46:35.627Z,79043.44
2022-11-29T17:49:09.087Z,79030.84
2022-11-29T17:51:56.992Z,79014.28
2022-11-29T17:54:26.933Z,78999.69
2022-11-29T17:56:57.403Z,79031.97
2022-11-29T17:59:26.562Z,79010.84
2022-11-29T18:01:56.024Z,79012.28
2022-11-29T18:04:25.606Z,79011.69
2022-11-29T18:06:55.676Z,79023.59
2022-11-29T18:09:24.815Z,79009.00
2022-11-29T18:11:56.157Z,79001.13
2022-11-29T18:14:29.235Z,79033.59
2022-11-29T18:16:58.429Z,78994.75
2022-11-29T18:19:27.319Z,79025.16
2022-11-29T18:21:57.039Z,78996.78
2022-11-29T18:24:28.522Z,79004.00
2022-11-29T18:26:57.685Z,78996.06
2022-11-29T18:29:26.693Z,79023.16
2022-11-29T18:31:56.916Z,79005.34
2022-11-29T18:34:25.759Z,78997.41
2022-11-29T18:36:55.010Z,79013.22
2022-11-29T18:39:26.196Z,79015.91
2022-11-29T18:41:55.850Z,79004.75
2022-11-29T18:44:31.724Z,79012.69
2022-11-29T18:47:02.822Z,78971.69
2022-11-29T18:49:31.984Z,78997.47
2022-11-29T18:52:00.782Z,79020.50
2022-11-29T18:54:31.904Z,79012.63
2022-11-29T18:57:01.038Z,78979.53
2022-11-29T18:59:29.871Z,79005.91
2022-11-29T19:01:59.062Z,78999.16
2022-11-29T19:04:27.982Z,79004.41
2022-11-29T19:06:57.052Z,79002.53
2022-11-29T19:09:26.050Z,79000.00
2022-11-29T19:11:55.230Z,78985.50
2022-11-29T19:14:25.414Z,78996.06
2022-11-29T19:16:54.454Z,78979.53
2022-11-29T19:19:26.355Z,79001.38
2022-11-29T19:21:55.655Z,78961.13
2022-11-29T19:24:27.997Z,78978.25
2022-11-29T19:26:59.008Z,79003.34
2022-11-29T19:29:28.496Z,78972.34
2022-11-29T19:31:58.196Z,78949.94
2022-11-29T19:34:29.393Z,78987.59
2022-11-29T19:36:58.519Z,78996.25
2022-11-29T19:39:28.678Z,78981.13
2022-11-29T19:41:59.368Z,78958.09
2022-11-29T19:44:30.046Z,78977.94
2022-11-29T19:46:59.244Z,78962.81
2022-11-29T19:49:28.266Z,78983.31
2022-11-29T19:51:57.194Z,78983.94
2022-11-29T19:54:25.930Z,78967.38
2022-11-29T19:56:56.611Z,78973.25
2022-11-29T19:59:25.923Z,78969.91
2022-11-29T20:01:54.893Z,78983.81
2022-11-29T20:04:23.737Z,78969.28
2022-11-29T20:06:52.934Z,78965.28
2022-11-29T20:09:23.273Z,78962.69
2022-11-29T20:11:52.899Z,78973.25
2022-11-29T20:14:21.588Z,78964.00
2022-11-29T20:16:51.766Z,78959.31
2022-11-29T20:19:20.713Z,78934.81
2022-11-29T20:21:50.520Z,78975.16
2022-11-29T20:24:20.385Z,78983.03
2022-11-29T20:26:50.347Z,78944.63
2022-11-29T20:29:20.304Z,78974.38
2022-11-29T20:31:50.928Z,78936.00
2022-11-29T20:34:20.943Z,78953.13
2022-11-29T20:37:26.324Z,78974.22
2022-11-29T20:40:02.635Z,78974.09
2022-11-29T20:42:40.480Z,78972.81
2022-11-29T20:45:14.887Z,78972.69
2022-11-29T20:47:59.001Z,78977.31
2022-11-29T20:50:31.381Z,78947.59
2022-11-29T20:53:03.367Z,78966.63
2022-11-29T20:55:32.359Z,78963.91
2022-11-29T20:58:01.167Z,78960.53
2022-11-29T21:00:30.179Z,78939.50
2022-11-29T21:02:58.955Z,78928.28
2022-11-29T21:05:29.057Z,78965.25
2022-11-29T21:07:58.974Z,78946.13
2022-11-29T21:10:27.873Z,78912.50
2022-11-29T21:12:57.573Z,78960.66
2022-11-29T21:15:26.848Z,78963.31
2022-11-29T21:17:55.964Z,78959.94
2022-11-29T21:20:26.973Z,78966.38
2022-11-29T21:23:12.755Z,78957.59
2022-11-29T21:26:15.994Z,78947.63
2022-11-29T21:28:58.887Z,78955.53
2022-11-29T21:31:28.818Z,78945.66
2022-11-29T21:33:57.787Z,78943.13
2022-11-29T21:36:26.730Z,78949.69
2022-11-29T21:38:55.735Z,78958.38
2022-11-29T21:41:26.022Z,78936.63
2022-11-29T21:44:09.734Z,78918.19
2022-11-29T21:46:39.010Z,78949.84
2022-11-29T21:49:07.967Z,78936.63
2022-11-29T21:51:36.954Z,78948.50
2022-11-29T21:54:06.045Z,78935.38
2022-11-29T21:56:34.939Z,78942.00
2022-11-29T21:59:03.566Z,78951.84
2022-11-29T22:01:34.612Z,78912.28
2022-11-29T22:04:04.524Z,78965.78
2022-11-29T22:06:33.403Z,78931.47
2022-11-29T22:09:02.922Z,78933.50
2022-11-29T22:11:32.382Z,78954.03
2022-11-29T22:14:15.398Z,78961.84
2022-11-29T22:16:53.129Z,78959.13
2022-11-29T22:19:24.545Z,78956.53
2022-11-29T22:21:56.396Z,78940.75
2022-11-29T22:24:28.218Z,78956.56
2022-11-29T22:26:57.818Z,78957.38
2022-11-29T22:29:27.305Z,78960.00
2022-11-29T22:31:58.141Z,78954.81
2022-11-29T22:34:28.571Z,78954.81
2022-11-29T22:36:57.458Z,78956.06
2022-11-29T22:39:26.606Z,78942.94
2022-11-29T22:41:55.636Z,78965.97
2022-11-29T22:44:25.469Z,78964.06
2022-11-29T22:46:54.442Z,78925.16
2022-11-29T22:49:23.396Z,78960.06
2022-11-29T22:51:53.205Z,78968.09
2022-11-29T22:54:22.367Z,78944.41
2022-11-29T22:56:51.118Z,78960.84
2022-11-29T22:59:19.847Z,78910.69
2022-11-29T23:01:48.953Z,78919.97
2022-11-29T23:04:17.737Z,78960.19
2022-11-29T23:06:47.919Z,78944.38
2022-11-29T23:09:22.428Z,78952.28
2022-11-29T23:11:57.051Z,78968.16
2022-11-29T23:14:26.290Z,78962.84
2022-11-29T23:16:55.205Z,78950.91
2022-11-29T23:19:24.016Z,78948.53
2022-11-29T23:21:52.941Z,78948.19
2022-11-29T23:24:21.751Z,78946.81
2022-11-29T23:26:50.431Z,78949.50
2022-11-29T23:29:20.842Z,78946.28
2022-11-29T23:31:50.189Z,78977.28
2022-11-29T23:34:18.882Z,78950.13
2022-11-29T23:36:52.680Z,78972.63
2022-11-29T23:39:22.249Z,78974.00
2022-11-29T23:41:50.946Z,78941.69
2022-11-29T23:44:19.861Z,78956.91
2022-11-29T23:46:48.557Z,78972.13
2022-11-29T23:49:17.425Z,78946.50
2022-11-29T23:51:46.059Z,78976.31
2022-11-29T23:54:14.925Z,78979.69
2022-11-29T23:56:43.650Z,78951.25
2022-11-29T23:59:12.497Z,78962.47
